Flight Track Log - Related Links

Times and Time Zones

All times are in EDT time to prevent confusion due to time zone crossing. See the CTL14 flight status page for this flight to view local times or setup timezone preferences in your user account.

Time Position Orientation Groundspeed Altitude Reporting Facility
EDT Latitude Longitude Course Direction KTS MPH feet Rate Location/Type
Tue 12:34:05 AM 42.1333 -87.8000 114° Southeast 132 152 2,700  Level Chicago TRACON
Tue 12:35:04 AM 42.1314 -87.7553 93° East 131 151 3,400 655 Climbing Chicago Center
Tue 12:36:04 AM 42.1186 -87.7042 109° East 138 159 4,000 595 Climbing Chicago Center
Tue 12:37:05 AM 42.0981 -87.6594 122° Southeast 140 161 4,600 545 Climbing Chicago Center
Tue 12:38:00 AM 41.9707 -87.5523 118° Southeast  Level FlightAware Approximate
Tue 12:38:05 AM 42.0775 -87.6122 120° Southeast 143 165 5,100  Level Chicago Center
Tue 12:39:05 AM 42.0567 -87.5600 118° Southeast 151 174 5,700 545 Climbing Chicago Center
Tue 12:40:06 AM 42.0372 -87.5100 118° Southeast 152 175 6,200 496 Climbing Chicago Center
Tue 12:41:06 AM 42.0131 -87.4561 121° Southeast 162 186 6,700 500 Climbing Chicago Center
Tue 12:42:06 AM 41.9933 -87.4056 118° Southeast 156 180 7,200 450 Climbing Chicago Center
Tue 12:43:06 AM 41.9717 -87.3519 119° Southeast 162 186 7,600 397 Climbing Chicago Center
Tue 12:44:07 AM 41.9494 -87.2992 120° Southeast 163 188 8,000 397 Climbing Chicago Center
Tue 12:45:07 AM 41.9269 -87.2450 119° Southeast 167 192 8,400 350 Climbing Chicago Center
Tue 12:46:07 AM 41.9047 -87.1903 119° Southeast 168 193 8,700 298 Climbing Chicago Center
Tue 12:47:08 AM 41.8819 -87.1342 119° Southeast 171 197 9,000 149 Climbing Chicago Center
Tue 12:48:08 AM 41.8572 -87.0778 120° Southeast 177 204 9,000 50 Level Chicago Center
Tue 12:49:08 AM 41.8319 -87.0167 119° Southeast 187 215 9,100 50 Climbing Chicago Center
Tue 12:50:08 AM 41.8050 -86.9542 120° Southeast 194 223 9,100  Level Chicago Center
Tue 12:51:09 AM 41.7792 -86.8931 120° Southeast 193 222 9,100  Level Chicago Center
Tue 12:52:09 AM 41.7544 -86.8319 118° Southeast 188 216 9,100 -50 Level Chicago Center
Tue 12:53:09 AM 41.7219 -86.7614 122° Southeast 187 215 9,000  Descending Chicago Center
Tue 12:54:09 AM 41.6950 -86.7031 122° Southeast 187 215 9,100  Climbing Chicago Center
Tue 12:55:10 AM 41.6686 -86.6419 120° Southeast 189 217 9,000 -50 Descending Chicago Center
Tue 12:56:10 AM 41.6453 -86.5828 118° Southeast 185 213 9,000  Level Chicago Center
Tue 12:57:10 AM 41.6192 -86.5225 120° Southeast 186 214 9,000 50 Level Chicago Center
Tue 12:58:10 AM 41.5944 -86.4625 119° Southeast 186 214 9,100 50 Climbing Chicago Center
Tue 12:59:10 AM 41.5694 -86.4047 120° Southeast 183 211 9,100  Level Chicago Center
Tue 01:00:11 AM 41.5439 -86.3453 120° Southeast 184 212 9,100  Level Chicago Center
Tue 01:01:11 AM 41.5186 -86.2842 119° Southeast 187 215 9,100 -100 Level Chicago Center
Tue 01:02:11 AM 41.4917 -86.2258 122° Southeast 187 215 8,900  Descending Chicago Center
Tue 01:03:11 AM 41.4661 -86.1683 121° Southeast 183 211 9,100 50 Climbing Chicago Center
Tue 01:04:11 AM 41.4406 -86.1106 121° Southeast 183 211 9,000 -50 Descending Chicago Center
Tue 01:05:12 AM 41.4153 -86.0500 119° Southeast 188 216 9,000  Level Chicago Center
Tue 01:06:12 AM 41.3903 -85.9911 119° Southeast 184 212 9,000  Level Chicago Center
Tue 01:07:12 AM 41.3639 -85.9331 121° Southeast 184 212 9,000 50 Level Chicago Center
Tue 01:08:12 AM 41.3297 -85.8869 135° Southeast 177 204 9,100  Climbing Chicago Center
Tue 01:09:13 AM 41.3033 -85.8300 122° Southeast 181 208 9,000 -50 Descending Chicago Center
Tue 01:10:13 AM 41.2792 -85.7719 119° Southeast 182 209 9,000  Level Chicago Center
Tue 01:11:13 AM 41.2539 -85.7144 120° Southeast 182 209 9,000 -50 Level Chicago Center
Tue 01:12:13 AM 41.2267 -85.6553 121° Southeast 187 215 8,900  Descending Chicago Center
Tue 01:13:13 AM 41.2011 -85.5972 120° Southeast 184 212 9,000  Climbing Chicago Center
Tue 01:14:14 AM 41.1764 -85.5389 119° Southeast 181 208 8,900  Descending Chicago Center
Tue 01:15:14 AM 41.1497 -85.4819 122° Southeast 182 209 9,000  Climbing Chicago Center
Tue 01:16:14 AM 41.1253 -85.4236 119° Southeast 182 209 8,900 -50 Descending Chicago Center
Tue 01:17:14 AM 41.1000 -85.3703 122° Southeast 173 199 8,900 50 Level Chicago Center
Tue 01:18:14 AM 41.0764 -85.3142 119° Southeast 174 200 9,000 50 Climbing Chicago Center
Tue 01:19:15 AM 41.0522 -85.2550 118° Southeast 181 208 9,000  Level Chicago Center
Tue 01:20:15 AM 41.0292 -85.2011 120° Southeast 174 200 9,000  Level Chicago Center
Tue 01:21:15 AM 41.0053 -85.1447 119° Southeast 175 201 9,000 50 Level Chicago Center
Tue 01:22:15 AM 40.9828 -85.0889 118° Southeast 172 198 9,100  Climbing Chicago Center
Tue 01:23:15 AM 40.9589 -85.0331 120° Southeast 175 201 9,000  Descending Chicago Center
Tue 01:24:16 AM 40.9328 -84.9786 122° Southeast 175 201 9,100 50 Climbing Chicago Center
Tue 01:25:16 AM 40.9036 -84.9283 127° Southeast 175 201 9,100  Level Chicago Center
Tue 01:26:16 AM 40.8858 -84.8689 112° Southeast 174 200 9,100 -50 Level Chicago Center
Tue 01:27:16 AM 40.8581 -84.8139 124° Southeast 179 206 9,000 -50 Descending Chicago Center
Tue 01:28:16 AM 40.8350 -84.7581 119° Southeast 176 203 9,000  Level Chicago Center
Tue 01:29:47 AM 40.7950 -84.6697 121° Southeast 175 201 9,000  Level Chicago Center
Tue 01:30:47 AM 40.7692 -84.6144 122° Southeast 177 204 9,000  Level Chicago Center
Tue 01:31:47 AM 40.7456 -84.5567 118° Southeast 178 205 9,000  Level Chicago Center
Tue 01:32:47 AM 40.7219 -84.5006 119° Southeast 177 204 9,000  Level Chicago Center
Tue 01:33:47 AM 40.6956 -84.4464 123° Southeast 177 204 9,000  Level Chicago Center
Tue 01:34:48 AM 40.6669 -84.3950 126° Southeast 175 201 9,000  Level Chicago Center
Tue 01:35:46 AM 40.6414 -84.3364 120° Southeast 177 204 9,000 -76 Level Indianapolis Center
Tue 01:36:07 AM 40.6367 -84.3206 111° Southeast 177 204 8,900 -98 Descending Indianapolis Center
Tue 01:36:47 AM 40.6189 -84.2781 119° Southeast 179 206 8,900 -100 Level Indianapolis Center
Tue 01:37:07 AM 40.6142 -84.2611 110° East 178 205 8,800 100 Descending Indianapolis Center
Tue 01:37:47 AM 40.5900 -84.2192 127° Southeast 177 204 9,000  Climbing Indianapolis Center
Tue 01:38:07 AM 40.5842 -84.2092 128° Southeast 175 201 8,800 -98 Descending Indianapolis Center
Tue 01:38:48 AM 40.5647 -84.1664 121° Southeast 175 201 8,900  Climbing Indianapolis Center
Tue 01:39:07 AM 40.5614 -84.1514 106° East 176 203 8,800  Descending Indianapolis Center
Tue 01:39:48 AM 40.5331 -84.1156 136° Southeast 180 207 8,900  Climbing Indianapolis Center
Tue 01:40:08 AM 40.5253 -84.1058 136° Southeast 179 206 8,800 197 Descending Indianapolis Center
Tue 01:40:49 AM 40.4961 -84.0778 144° Southeast 174 200 9,100 300 Climbing Indianapolis Center
Tue 01:41:08 AM 40.4883 -84.0664 132° Southeast 171 197 9,100 -492 Level Indianapolis Center
Tue 01:41:50 AM 40.4644 -84.0269 129° Southeast 193 222 8,600 -500 Descending Indianapolis Center
Tue 01:42:08 AM 40.4589 -84.0111 115° Southeast 184 212 8,600 -300 Level Indianapolis Center
Tue 01:42:50 AM 40.4397 -83.9661 119° Southeast 190 219 8,300 -500 Descending Indianapolis Center
Tue 01:43:08 AM 40.4347 -83.9475 109° East 191 220 8,100 -689 Descending Indianapolis Center
Tue 01:43:51 AM 40.4136 -83.8969 119° Southeast 196 226 7,600 -492 Descending Indianapolis Center
Tue 01:44:09 AM 40.4106 -83.8819 105° East 196 226 7,600 -600 Level Indianapolis Center
Tue 01:44:51 AM 40.3908 -83.8364 120° Southeast 188 216 7,000 -700 Descending Indianapolis Center
Tue 01:45:09 AM 40.3872 -83.8200 106° East 189 217 6,900 -787 Descending Indianapolis Center
Tue 01:45:52 AM 40.3683 -83.7733 118° Southeast 194 223 6,200 -900 Descending Indianapolis Center
Tue 01:46:09 AM 40.3628 -83.7561 113° Southeast 192 221 6,000 -627 Descending Indianapolis Center
Tue 01:46:59 AM 40.3422 -83.7042 117° Southeast 189 217 5,500 -635 Descending Indianapolis Center
Tue 01:47:53 AM 40.3211 -83.6497 117° Southeast 182 209 4,900 -507 Descending Indianapolis Center
Tue 01:48:10 AM 40.3158 -83.6347 115° Southeast 187 215 4,900 -492 Level Indianapolis Center
Tue 01:48:54 AM 40.2958 -83.5944 123° Southeast 178 205 4,400 -600 Descending Indianapolis Center
Tue 01:49:10 AM 40.2911 -83.5783 111° Southeast 182 209 4,300 -492 Descending Indianapolis Center
Tue 01:49:55 AM 40.2728 -83.5369 120° Southeast 182 209 3,900 -400 Descending Indianapolis Center
Tue 01:50:10 AM 40.2672 -83.5200 113° Southeast 180 207 3,900 -400 Level Indianapolis Center
Tue 01:50:55 AM 40.2478 -83.4764 120° Southeast 179 206 3,500 -500 Descending Indianapolis Center
Tue 01:51:10 AM 40.2431 -83.4622 114° Southeast 180 207 3,400 -448 Descending Indianapolis Center
Tue 01:52:02 AM 40.2208 -83.4131 121° Southeast 178 205 3,000 -462 Descending Indianapolis Center
Tue 01:54:00 AM 40.1873 -83.3079 123° Southeast  Level FlightAware Approximate
Tue 02:01:00 AM 40.0798 -83.0732 123° Southeast  Level Estimated
Tue 02:02:00 AM 40.0798 -83.0732 123° Southeast  Level Estimated

Login

Don't have an account? Register now (free) for customized features, flight alerts, and more!